sensor_id;sensor_type;location;lat;lon;timestamp;P1;P2;P0
64138;PMS5003;50435;43.700;-79.318;2023-02-20T00:00:57;8;8;
64138;PMS5003;50435;43.700;-79.318;2023-02-20T00:03:24;8;8;
64138;PMS5003;50435;43.700;-79.318;2023-02-20T00:05:52;9;8;
64138;PMS5003;50435;43.700;-79.318;2023-02-20T00:08:20;11;11;
64138;PMS5003;50435;43.700;-79.318;2023-02-20T00:10:47;10;10;
64138;PMS5003;50435;43.700;-79.318;2023-02-20T00:13:15;10;9;
64138;PMS5003;50435;43.700;-79.318;2023-02-20T00:15:42;9;9;
64138;PMS5003;50435;43.700;-79.318;2023-02-20T00:18:09;14;11;
64138;PMS5003;50435;43.700;-79.318;2023-02-20T00:20:36;11;11;
64138;PMS5003;50435;43.700;-79.318;2023-02-20T00:23:04;11;11;
64138;PMS5003;50435;43.700;-79.318;2023-02-20T00:25:31;9;9;
64138;PMS5003;50435;43.700;-79.318;2023-02-20T00:27:58;10;10;
64138;PMS5003;50435;43.700;-79.318;2023-02-20T00:30:25;9;8;
64138;PMS5003;50435;43.700;-79.318;2023-02-20T00:32:54;14;9;
64138;PMS5003;50435;43.700;-79.318;2023-02-20T00:35:22;9;8;
64138;PMS5003;50435;43.700;-79.318;2023-02-20T00:37:51;10;8;
64138;PMS5003;50435;43.700;-79.318;2023-02-20T00:40:22;9;8;
64138;PMS5003;50435;43.700;-79.318;2023-02-20T00:42:50;10;9;
64138;PMS5003;50435;43.700;-79.318;2023-02-20T00:45:19;13;10;
64138;PMS5003;50435;43.700;-79.318;2023-02-20T00:47:46;13;11;
64138;PMS5003;50435;43.700;-79.318;2023-02-20T00:50:14;12;10;
64138;PMS5003;50435;43.700;-79.318;2023-02-20T00:52:42;9;9;
64138;PMS5003;50435;43.700;-79.318;2023-02-20T00:55:10;10;9;
64138;PMS5003;50435;43.700;-79.318;2023-02-20T00:57:38;12;8;
64138;PMS5003;50435;43.700;-79.318;2023-02-20T01:00:06;9;9;
64138;PMS5003;50435;43.700;-79.318;2023-02-20T01:02:36;12;12;
64138;PMS5003;50435;43.700;-79.318;2023-02-20T01:05:04;8;8;
64138;PMS5003;50435;43.700;-79.318;2023-02-20T01:07:32;9;8;
64138;PMS5003;50435;43.700;-79.318;2023-02-20T01:09:59;8;8;
64138;PMS5003;50435;43.700;-79.318;2023-02-20T01:12:26;12;12;
64138;PMS5003;50435;43.700;-79.318;2023-02-20T01:14:53;9;9;
64138;PMS5003;50435;43.700;-79.318;2023-02-20T01:17:21;12;9;
64138;PMS5003;50435;43.700;-79.318;2023-02-20T01:19:48;10;9;
64138;PMS5003;50435;43.700;-79.318;2023-02-20T01:22:15;9;9;
64138;PMS5003;50435;43.700;-79.318;2023-02-20T01:24:43;9;8;
64138;PMS5003;50435;43.700;-79.318;2023-02-20T01:27:11;9;8;
64138;PMS5003;50435;43.700;-79.318;2023-02-20T01:29:38;5;5;
64138;PMS5003;50435;43.700;-79.318;2023-02-20T01:32:05;10;9;
64138;PMS5003;50435;43.700;-79.318;2023-02-20T01:34:32;8;8;
64138;PMS5003;50435;43.700;-79.318;2023-02-20T01:37:00;10;10;
64138;PMS5003;50435;43.700;-79.318;2023-02-20T01:39:28;10;10;
64138;PMS5003;50435;43.700;-79.318;2023-02-20T01:41:56;11;10;
64138;PMS5003;50435;43.700;-79.318;2023-02-20T01:44:28;7;6;
64138;PMS5003;50435;43.700;-79.318;2023-02-20T01:46:58;10;9;
64138;PMS5003;50435;43.700;-79.318;2023-02-20T01:49:28;11;10;
64138;PMS5003;50435;43.700;-79.318;2023-02-20T01:52:01;11;8;
64138;PMS5003;50435;43.700;-79.318;2023-02-20T01:54:33;6;6;
64138;PMS5003;50435;43.700;-79.318;2023-02-20T01:57:06;11;10;
64138;PMS5003;50435;43.700;-79.318;2023-02-20T01:59:37;8;8;
64138;PMS5003;50435;43.700;-79.318;2023-02-20T02:02:07;7;7;
64138;PMS5003;50435;43.700;-79.318;2023-02-20T02:04:35;8;8;
64138;PMS5003;50435;43.700;-79.318;2023-02-20T02:07:07;8;7;
64138;PMS5003;50435;43.700;-79.318;2023-02-20T02:09:37;9;9;
64138;PMS5003;50435;43.700;-79.318;2023-02-20T02:12:09;8;8;
64138;PMS5003;50435;43.700;-79.318;2023-02-20T02:14:37;10;10;
64138;PMS5003;50435;43.700;-79.318;2023-02-20T02:17:11;8;8;
64138;PMS5003;50435;43.700;-79.318;2023-02-20T02:20:01;9;8;
64138;PMS5003;50435;43.700;-79.318;2023-02-20T02:23:13;11;10;
64138;PMS5003;50435;43.700;-79.318;2023-02-20T02:25:58;8;8;
64138;PMS5003;50435;43.700;-79.318;2023-02-20T02:28:38;8;8;
64138;PMS5003;50435;43.700;-79.318;2023-02-20T02:33:02;10;8;
64138;PMS5003;50435;43.700;-79.318;2023-02-20T02:37:56;14;13;
64138;PMS5003;50435;43.700;-79.318;2023-02-20T02:40:32;8;8;
64138;PMS5003;50435;43.700;-79.318;2023-02-20T02:43:08;14;10;
64138;PMS5003;50435;43.700;-79.318;2023-02-20T02:45:44;8;8;
64138;PMS5003;50435;43.700;-79.318;2023-02-20T02:48:18;7;7;
64138;PMS5003;50435;43.700;-79.318;2023-02-20T02:50:51;9;9;
64138;PMS5003;50435;43.700;-79.318;2023-02-20T02:53:22;9;9;
64138;PMS5003;50435;43.700;-79.318;2023-02-20T02:55:50;9;8;
64138;PMS5003;50435;43.700;-79.318;2023-02-20T02:58:17;9;9;
64138;PMS5003;50435;43.700;-79.318;2023-02-20T03:00:46;7;7;
64138;PMS5003;50435;43.700;-79.318;2023-02-20T03:03:18;8;8;
64138;PMS5003;50435;43.700;-79.318;2023-02-20T03:05:49;7;7;
64138;PMS5003;50435;43.700;-79.318;2023-02-20T03:08:24;10;10;
64138;PMS5003;50435;43.700;-79.318;2023-02-20T03:10:59;10;8;
64138;PMS5003;50435;43.700;-79.318;2023-02-20T03:13:31;8;7;
64138;PMS5003;50435;43.700;-79.318;2023-02-20T03:16:01;8;8;
64138;PMS5003;50435;43.700;-79.318;2023-02-20T03:18:30;8;7;
64138;PMS5003;50435;43.700;-79.318;2023-02-20T03:21:04;7;7;
64138;PMS5003;50435;43.700;-79.318;2023-02-20T03:23:35;8;8;
64138;PMS5003;50435;43.700;-79.318;2023-02-20T03:26:06;7;6;
64138;PMS5003;50435;43.700;-79.318;2023-02-20T03:28:40;9;7;
64138;PMS5003;50435;43.700;-79.318;2023-02-20T03:31:13;8;7;
64138;PMS5003;50435;43.700;-79.318;2023-02-20T03:33:44;7;7;
64138;PMS5003;50435;43.700;-79.318;2023-02-20T03:36:15;9;9;
64138;PMS5003;50435;43.700;-79.318;2023-02-20T03:38:46;10;8;
64138;PMS5003;50435;43.700;-79.318;2023-02-20T03:41:18;10;9;
64138;PMS5003;50435;43.700;-79.318;2023-02-20T03:43:48;8;8;
64138;PMS5003;50435;43.700;-79.318;2023-02-20T03:46:19;8;8;
64138;PMS5003;50435;43.700;-79.318;2023-02-20T03:48:50;9;7;
64138;PMS5003;50435;43.700;-79.318;2023-02-20T03:51:22;11;11;
64138;PMS5003;50435;43.700;-79.318;2023-02-20T03:53:50;7;7;
64138;PMS5003;50435;43.700;-79.318;2023-02-20T03:56:20;6;6;
64138;PMS5003;50435;43.700;-79.318;2023-02-20T03:58:51;6;6;
64138;PMS5003;50435;43.700;-79.318;2023-02-20T04:01:22;7;6;
64138;PMS5003;50435;43.700;-79.318;2023-02-20T04:03:53;6;5;
64138;PMS5003;50435;43.700;-79.318;2023-02-20T04:06:25;6;6;
64138;PMS5003;50435;43.700;-79.318;2023-02-20T04:08:57;8;8;
64138;PMS5003;50435;43.700;-79.318;2023-02-20T04:11:30;8;8;
64138;PMS5003;50435;43.700;-79.318;2023-02-20T04:14:03;9;7;
64138;PMS5003;50435;43.700;-79.318;2023-02-20T04:16:38;6;6;
64138;PMS5003;50435;43.700;-79.318;2023-02-20T04:19:11;8;6;
64138;PMS5003;50435;43.700;-79.318;2023-02-20T04:21:39;11;10;
64138;PMS5003;50435;43.700;-79.318;2023-02-20T04:24:11;7;7;
64138;PMS5003;50435;43.700;-79.318;2023-02-20T04:26:46;8;7;
64138;PMS5003;50435;43.700;-79.318;2023-02-20T04:29:14;9;7;
64138;PMS5003;50435;43.700;-79.318;2023-02-20T04:31:41;7;6;
64138;PMS5003;50435;43.700;-79.318;2023-02-20T04:34:09;9;6;
64138;PMS5003;50435;43.700;-79.318;2023-02-20T04:36:36;8;8;
64138;PMS5003;50435;43.700;-79.318;2023-02-20T04:39:03;7;6;
64138;PMS5003;50435;43.700;-79.318;2023-02-20T04:41:31;7;7;
64138;PMS5003;50435;43.700;-79.318;2023-02-20T04:43:58;10;7;
64138;PMS5003;50435;43.700;-79.318;2023-02-20T04:46:25;6;6;
64138;PMS5003;50435;43.700;-79.318;2023-02-20T04:48:52;8;7;
64138;PMS5003;50435;43.700;-79.318;2023-02-20T04:51:19;10;7;
64138;PMS5003;50435;43.700;-79.318;2023-02-20T04:53:47;8;7;
64138;PMS5003;50435;43.700;-79.318;2023-02-20T04:56:14;7;6;
64138;PMS5003;50435;43.700;-79.318;2023-02-20T04:58:45;8;7;
64138;PMS5003;50435;43.700;-79.318;2023-02-20T05:01:12;8;8;
64138;PMS5003;50435;43.700;-79.318;2023-02-20T05:03:40;5;5;
64138;PMS5003;50435;43.700;-79.318;2023-02-20T05:06:07;6;6;
64138;PMS5003;50435;43.700;-79.318;2023-02-20T05:08:34;6;6;
64138;PMS5003;50435;43.700;-79.318;2023-02-20T05:11:01;6;6;
64138;PMS5003;50435;43.700;-79.318;2023-02-20T05:13:28;6;6;
64138;PMS5003;50435;43.700;-79.318;2023-02-20T05:15:56;9;6;
64138;PMS5003;50435;43.700;-79.318;2023-02-20T05:18:24;5;5;
64138;PMS5003;50435;43.700;-79.318;2023-02-20T05:20:53;7;6;
64138;PMS5003;50435;43.700;-79.318;2023-02-20T05:23:20;5;5;
64138;PMS5003;50435;43.700;-79.318;2023-02-20T05:25:47;8;7;
64138;PMS5003;50435;43.700;-79.318;2023-02-20T05:28:14;7;6;
64138;PMS5003;50435;43.700;-79.318;2023-02-20T05:30:41;6;6;
64138;PMS5003;50435;43.700;-79.318;2023-02-20T05:33:08;7;7;
64138;PMS5003;50435;43.700;-79.318;2023-02-20T05:35:36;6;6;
64138;PMS5003;50435;43.700;-79.318;2023-02-20T05:38:03;9;8;
64138;PMS5003;50435;43.700;-79.318;2023-02-20T05:40:30;9;9;
64138;PMS5003;50435;43.700;-79.318;2023-02-20T05:42:57;7;5;
64138;PMS5003;50435;43.700;-79.318;2023-02-20T05:45:24;9;9;
64138;PMS5003;50435;43.700;-79.318;2023-02-20T05:47:52;8;7;
64138;PMS5003;50435;43.700;-79.318;2023-02-20T05:50:19;6;6;
64138;PMS5003;50435;43.700;-79.318;2023-02-20T05:52:46;9;6;
64138;PMS5003;50435;43.700;-79.318;2023-02-20T05:55:14;6;6;
64138;PMS5003;50435;43.700;-79.318;2023-02-20T05:57:42;4;4;
64138;PMS5003;50435;43.700;-79.318;2023-02-20T06:00:10;7;7;
64138;PMS5003;50435;43.700;-79.318;2023-02-20T06:02:38;7;6;
64138;PMS5003;50435;43.700;-79.318;2023-02-20T06:05:05;10;9;
64138;PMS5003;50435;43.700;-79.318;2023-02-20T06:07:33;8;7;
64138;PMS5003;50435;43.700;-79.318;2023-02-20T06:10:01;5;5;
64138;PMS5003;50435;43.700;-79.318;2023-02-20T06:12:29;8;7;
64138;PMS5003;50435;43.700;-79.318;2023-02-20T06:14:57;9;9;
64138;PMS5003;50435;43.700;-79.318;2023-02-20T06:17:24;8;8;
64138;PMS5003;50435;43.700;-79.318;2023-02-20T06:19:52;8;8;
64138;PMS5003;50435;43.700;-79.318;2023-02-20T06:22:20;4;4;
64138;PMS5003;50435;43.700;-79.318;2023-02-20T06:24:47;7;6;
64138;PMS5003;50435;43.700;-79.318;2023-02-20T06:27:15;6;6;
64138;PMS5003;50435;43.700;-79.318;2023-02-20T06:29:45;7;7;
64138;PMS5003;50435;43.700;-79.318;2023-02-20T06:32:13;4;4;
64138;PMS5003;50435;43.700;-79.318;2023-02-20T06:34:42;6;6;
64138;PMS5003;50435;43.700;-79.318;2023-02-20T06:37:10;8;7;
64138;PMS5003;50435;43.700;-79.318;2023-02-20T06:39:37;7;7;
64138;PMS5003;50435;43.700;-79.318;2023-02-20T06:42:04;6;6;
64138;PMS5003;50435;43.700;-79.318;2023-02-20T06:44:32;4;4;
64138;PMS5003;50435;43.700;-79.318;2023-02-20T06:46:59;7;7;
64138;PMS5003;50435;43.700;-79.318;2023-02-20T06:49:26;5;5;
64138;PMS5003;50435;43.700;-79.318;2023-02-20T06:51:54;5;5;
64138;PMS5003;50435;43.700;-79.318;2023-02-20T06:54:21;9;8;
64138;PMS5003;50435;43.700;-79.318;2023-02-20T06:56:48;7;6;
64138;PMS5003;50435;43.700;-79.318;2023-02-20T06:59:16;7;6;
64138;PMS5003;50435;43.700;-79.318;2023-02-20T07:01:44;9;7;
64138;PMS5003;50435;43.700;-79.318;2023-02-20T07:04:14;7;6;
64138;PMS5003;50435;43.700;-79.318;2023-02-20T07:06:46;6;6;
64138;PMS5003;50435;43.700;-79.318;2023-02-20T07:09:15;6;6;
64138;PMS5003;50435;43.700;-79.318;2023-02-20T07:11:43;6;6;
64138;PMS5003;50435;43.700;-79.318;2023-02-20T07:14:10;8;5;
64138;PMS5003;50435;43.700;-79.318;2023-02-20T07:16:38;9;7;
64138;PMS5003;50435;43.700;-79.318;2023-02-20T07:19:05;7;7;
64138;PMS5003;50435;43.700;-79.318;2023-02-20T07:21:32;7;6;
64138;PMS5003;50435;43.700;-79.318;2023-02-20T07:24:00;8;8;
64138;PMS5003;50435;43.700;-79.318;2023-02-20T07:26:28;8;7;
64138;PMS5003;50435;43.700;-79.318;2023-02-20T07:28:56;5;4;
64138;PMS5003;50435;43.700;-79.318;2023-02-20T07:31:25;9;7;
64138;PMS5003;50435;43.700;-79.318;2023-02-20T07:33:52;7;7;
64138;PMS5003;50435;43.700;-79.318;2023-02-20T07:36:20;8;8;
64138;PMS5003;50435;43.700;-79.318;2023-02-20T07:38:52;5;5;
64138;PMS5003;50435;43.700;-79.318;2023-02-20T07:41:20;10;6;
64138;PMS5003;50435;43.700;-79.318;2023-02-20T07:43:47;5;5;
64138;PMS5003;50435;43.700;-79.318;2023-02-20T07:46:15;7;6;
64138;PMS5003;50435;43.700;-79.318;2023-02-20T07:48:43;7;6;
64138;PMS5003;50435;43.700;-79.318;2023-02-20T07:51:10;8;7;
64138;PMS5003;50435;43.700;-79.318;2023-02-20T07:53:37;7;7;
64138;PMS5003;50435;43.700;-79.318;2023-02-20T07:56:05;8;8;
64138;PMS5003;50435;43.700;-79.318;2023-02-20T07:58:33;8;8;
64138;PMS5003;50435;43.700;-79.318;2023-02-20T08:01:00;7;7;
64138;PMS5003;50435;43.700;-79.318;2023-02-20T08:03:28;7;6;
64138;PMS5003;50435;43.700;-79.318;2023-02-20T08:05:55;9;7;
64138;PMS5003;50435;43.700;-79.318;2023-02-20T08:08:23;6;6;
64138;PMS5003;50435;43.700;-79.318;2023-02-20T08:10:50;7;5;
64138;PMS5003;50435;43.700;-79.318;2023-02-20T08:13:18;6;6;
64138;PMS5003;50435;43.700;-79.318;2023-02-20T08:15:45;7;7;
64138;PMS5003;50435;43.700;-79.318;2023-02-20T08:18:13;8;5;
64138;PMS5003;50435;43.700;-79.318;2023-02-20T08:20:40;8;8;
64138;PMS5003;50435;43.700;-79.318;2023-02-20T08:23:14;7;7;
64138;PMS5003;50435;43.700;-79.318;2023-02-20T08:25:43;6;6;
64138;PMS5003;50435;43.700;-79.318;2023-02-20T08:28:11;6;6;
64138;PMS5003;50435;43.700;-79.318;2023-02-20T08:30:39;7;7;
64138;PMS5003;50435;43.700;-79.318;2023-02-20T08:33:06;9;8;
64138;PMS5003;50435;43.700;-79.318;2023-02-20T08:35:33;7;7;
64138;PMS5003;50435;43.700;-79.318;2023-02-20T08:38:01;8;7;
64138;PMS5003;50435;43.700;-79.318;2023-02-20T08:40:30;7;7;
64138;PMS5003;50435;43.700;-79.318;2023-02-20T08:42:58;9;8;
64138;PMS5003;50435;43.700;-79.318;2023-02-20T08:45:25;8;8;
64138;PMS5003;50435;43.700;-79.318;2023-02-20T08:47:55;8;7;
64138;PMS5003;50435;43.700;-79.318;2023-02-20T08:50:23;8;7;
64138;PMS5003;50435;43.700;-79.318;2023-02-20T08:52:50;6;6;
64138;PMS5003;50435;43.700;-79.318;2023-02-20T08:55:18;7;7;
64138;PMS5003;50435;43.700;-79.318;2023-02-20T08:57:45;7;6;
64138;PMS5003;50435;43.700;-79.318;2023-02-20T09:00:13;10;10;
64138;PMS5003;50435;43.700;-79.318;2023-02-20T09:02:41;8;7;
64138;PMS5003;50435;43.700;-79.318;2023-02-20T09:05:08;7;6;
64138;PMS5003;50435;43.700;-79.318;2023-02-20T09:07:36;11;8;
64138;PMS5003;50435;43.700;-79.318;2023-02-20T09:10:03;9;8;
64138;PMS5003;50435;43.700;-79.318;2023-02-20T09:12:31;9;9;
64138;PMS5003;50435;43.700;-79.318;2023-02-20T09:14:58;8;8;
64138;PMS5003;50435;43.700;-79.318;2023-02-20T09:17:25;7;7;
64138;PMS5003;50435;43.700;-79.318;2023-02-20T09:19:53;7;7;
64138;PMS5003;50435;43.700;-79.318;2023-02-20T09:22:21;7;7;
64138;PMS5003;50435;43.700;-79.318;2023-02-20T09:24:49;12;8;
64138;PMS5003;50435;43.700;-79.318;2023-02-20T09:27:17;8;8;
64138;PMS5003;50435;43.700;-79.318;2023-02-20T09:29:45;8;8;
64138;PMS5003;50435;43.700;-79.318;2023-02-20T09:32:13;8;8;
64138;PMS5003;50435;43.700;-79.318;2023-02-20T09:34:41;9;9;
64138;PMS5003;50435;43.700;-79.318;2023-02-20T09:37:08;7;7;
64138;PMS5003;50435;43.700;-79.318;2023-02-20T09:39:35;7;6;
64138;PMS5003;50435;43.700;-79.318;2023-02-20T09:42:06;13;13;
64138;PMS5003;50435;43.700;-79.318;2023-02-20T09:44:49;7;7;
64138;PMS5003;50435;43.700;-79.318;2023-02-20T09:47:25;7;7;
64138;PMS5003;50435;43.700;-79.318;2023-02-20T09:50:06;9;9;
64138;PMS5003;50435;43.700;-79.318;2023-02-20T09:52:40;8;8;
64138;PMS5003;50435;43.700;-79.318;2023-02-20T09:55:13;9;9;
64138;PMS5003;50435;43.700;-79.318;2023-02-20T09:57:46;9;9;
64138;PMS5003;50435;43.700;-79.318;2023-02-20T10:00:20;8;8;
64138;PMS5003;50435;43.700;-79.318;2023-02-20T10:02:54;9;8;
64138;PMS5003;50435;43.700;-79.318;2023-02-20T10:05:32;9;9;
64138;PMS5003;50435;43.700;-79.318;2023-02-20T10:08:02;13;10;
64138;PMS5003;50435;43.700;-79.318;2023-02-20T10:10:30;10;10;
64138;PMS5003;50435;43.700;-79.318;2023-02-20T10:13:02;8;8;
64138;PMS5003;50435;43.700;-79.318;2023-02-20T10:15:43;10;9;
64138;PMS5003;50435;43.700;-79.318;2023-02-20T10:18:20;11;11;
64138;PMS5003;50435;43.700;-79.318;2023-02-20T10:20:56;9;9;
64138;PMS5003;50435;43.700;-79.318;2023-02-20T10:23:32;15;12;
64138;PMS5003;50435;43.700;-79.318;2023-02-20T10:26:09;9;9;
64138;PMS5003;50435;43.700;-79.318;2023-02-20T10:28:40;9;9;
64138;PMS5003;50435;43.700;-79.318;2023-02-20T10:31:11;12;12;
64138;PMS5003;50435;43.700;-79.318;2023-02-20T10:33:53;10;9;
64138;PMS5003;50435;43.700;-79.318;2023-02-20T10:36:26;12;10;
64138;PMS5003;50435;43.700;-79.318;2023-02-20T10:39:01;9;9;
64138;PMS5003;50435;43.700;-79.318;2023-02-20T10:41:34;10;10;
64138;PMS5003;50435;43.700;-79.318;2023-02-20T10:44:10;9;9;
64138;PMS5003;50435;43.700;-79.318;2023-02-20T10:46:47;10;10;
64138;PMS5003;50435;43.700;-79.318;2023-02-20T10:49:23;12;9;
64138;PMS5003;50435;43.700;-79.318;2023-02-20T10:52:01;12;8;
64138;PMS5003;50435;43.700;-79.318;2023-02-20T10:54:34;14;13;
64138;PMS5003;50435;43.700;-79.318;2023-02-20T10:57:05;13;10;
64138;PMS5003;50435;43.700;-79.318;2023-02-20T10:59:41;11;11;
64138;PMS5003;50435;43.700;-79.318;2023-02-20T11:02:15;14;14;
64138;PMS5003;50435;43.700;-79.318;2023-02-20T11:04:46;13;13;
64138;PMS5003;50435;43.700;-79.318;2023-02-20T11:07:19;16;13;
64138;PMS5003;50435;43.700;-79.318;2023-02-20T11:09:47;15;11;
64138;PMS5003;50435;43.700;-79.318;2023-02-20T11:12:18;12;12;
64138;PMS5003;50435;43.700;-79.318;2023-02-20T11:14:52;10;9;
64138;PMS5003;50435;43.700;-79.318;2023-02-20T11:17:22;13;11;
64138;PMS5003;50435;43.700;-79.318;2023-02-20T11:19:53;16;15;
64138;PMS5003;50435;43.700;-79.318;2023-02-20T11:22:39;10;9;
64138;PMS5003;50435;43.700;-79.318;2023-02-20T11:25:17;13;11;
64138;PMS5003;50435;43.700;-79.318;2023-02-20T11:27:47;11;11;
64138;PMS5003;50435;43.700;-79.318;2023-02-20T11:30:21;13;13;
64138;PMS5003;50435;43.700;-79.318;2023-02-20T11:32:58;11;10;
64138;PMS5003;50435;43.700;-79.318;2023-02-20T11:35:30;13;9;
64138;PMS5003;50435;43.700;-79.318;2023-02-20T11:38:33;11;11;
64138;PMS5003;50435;43.700;-79.318;2023-02-20T11:41:06;11;10;
64138;PMS5003;50435;43.700;-79.318;2023-02-20T11:43:41;8;8;
64138;PMS5003;50435;43.700;-79.318;2023-02-20T11:46:12;16;14;
64138;PMS5003;50435;43.700;-79.318;2023-02-20T11:48:56;11;9;
64138;PMS5003;50435;43.700;-79.318;2023-02-20T11:51:34;11;10;
64138;PMS5003;50435;43.700;-79.318;2023-02-20T11:54:07;15;13;
64138;PMS5003;50435;43.700;-79.318;2023-02-20T11:56:49;10;10;
64138;PMS5003;50435;43.700;-79.318;2023-02-20T11:59:30;15;13;
64138;PMS5003;50435;43.700;-79.318;2023-02-20T12:02:32;13;13;
64138;PMS5003;50435;43.700;-79.318;2023-02-20T12:05:02;15;15;
64138;PMS5003;50435;43.700;-79.318;2023-02-20T12:07:34;13;13;
64138;PMS5003;50435;43.700;-79.318;2023-02-20T12:10:10;10;10;
64138;PMS5003;50435;43.700;-79.318;2023-02-20T12:12:49;11;11;
64138;PMS5003;50435;43.700;-79.318;2023-02-20T12:15:18;13;13;
64138;PMS5003;50435;43.700;-79.318;2023-02-20T12:17:51;14;13;
64138;PMS5003;50435;43.700;-79.318;2023-02-20T12:20:35;13;11;
64138;PMS5003;50435;43.700;-79.318;2023-02-20T12:23:09;13;10;
64138;PMS5003;50435;43.700;-79.318;2023-02-20T12:25:51;14;14;
64138;PMS5003;50435;43.700;-79.318;2023-02-20T12:28:31;16;11;
64138;PMS5003;50435;43.700;-79.318;2023-02-20T12:31:08;13;13;
64138;PMS5003;50435;43.700;-79.318;2023-02-20T12:33:48;14;14;
64138;PMS5003;50435;43.700;-79.318;2023-02-20T12:36:27;13;13;
64138;PMS5003;50435;43.700;-79.318;2023-02-20T12:38:59;12;12;
64138;PMS5003;50435;43.700;-79.318;2023-02-20T12:41:37;12;12;
64138;PMS5003;50435;43.700;-79.318;2023-02-20T12:44:22;12;10;
64138;PMS5003;50435;43.700;-79.318;2023-02-20T12:47:01;18;16;
64138;PMS5003;50435;43.700;-79.318;2023-02-20T12:49:45;13;12;
64138;PMS5003;50435;43.700;-79.318;2023-02-20T12:52:25;18;13;
64138;PMS5003;50435;43.700;-79.318;2023-02-20T12:55:04;10;10;
64138;PMS5003;50435;43.700;-79.318;2023-02-20T12:57:45;18;18;
64138;PMS5003;50435;43.700;-79.318;2023-02-20T13:00:21;13;12;
64138;PMS5003;50435;43.700;-79.318;2023-02-20T13:02:54;17;15;
64138;PMS5003;50435;43.700;-79.318;2023-02-20T13:05:26;16;14;
64138;PMS5003;50435;43.700;-79.318;2023-02-20T13:07:55;14;14;
64138;PMS5003;50435;43.700;-79.318;2023-02-20T13:10:27;14;14;
64138;PMS5003;50435;43.700;-79.318;2023-02-20T13:12:58;14;14;
64138;PMS5003;50435;43.700;-79.318;2023-02-20T13:15:31;15;14;
64138;PMS5003;50435;43.700;-79.318;2023-02-20T13:18:06;19;18;
64138;PMS5003;50435;43.700;-79.318;2023-02-20T13:20:43;14;10;
64138;PMS5003;50435;43.700;-79.318;2023-02-20T13:23:29;14;13;
64138;PMS5003;50435;43.700;-79.318;2023-02-20T13:25:59;14;14;
64138;PMS5003;50435;43.700;-79.318;2023-02-20T13:28:42;13;13;
64138;PMS5003;50435;43.700;-79.318;2023-02-20T13:31:11;15;15;
64138;PMS5003;50435;43.700;-79.318;2023-02-20T13:33:41;14;14;
64138;PMS5003;50435;43.700;-79.318;2023-02-20T13:36:14;14;13;
64138;PMS5003;50435;43.700;-79.318;2023-02-20T13:39:24;13;13;
64138;PMS5003;50435;43.700;-79.318;2023-02-20T13:41:57;15;15;
64138;PMS5003;50435;43.700;-79.318;2023-02-20T13:44:41;17;15;
64138;PMS5003;50435;43.700;-79.318;2023-02-20T13:47:42;17;14;
64138;PMS5003;50435;43.700;-79.318;2023-02-20T13:50:42;14;13;
64138;PMS5003;50435;43.700;-79.318;2023-02-20T13:53:09;15;14;
64138;PMS5003;50435;43.700;-79.318;2023-02-20T13:55:36;13;13;
64138;PMS5003;50435;43.700;-79.318;2023-02-20T13:58:10;15;15;
64138;PMS5003;50435;43.700;-79.318;2023-02-20T14:00:43;14;14;
64138;PMS5003;50435;43.700;-79.318;2023-02-20T14:03:16;12;10;
64138;PMS5003;50435;43.700;-79.318;2023-02-20T14:05:58;9;9;
64138;PMS5003;50435;43.700;-79.318;2023-02-20T14:08:27;16;13;
64138;PMS5003;50435;43.700;-79.318;2023-02-20T14:10:54;13;13;
64138;PMS5003;50435;43.700;-79.318;2023-02-20T14:13:28;13;13;
64138;PMS5003;50435;43.700;-79.318;2023-02-20T14:15:57;12;12;
64138;PMS5003;50435;43.700;-79.318;2023-02-20T14:18:26;12;12;
64138;PMS5003;50435;43.700;-79.318;2023-02-20T14:20:57;10;9;
64138;PMS5003;50435;43.700;-79.318;2023-02-20T14:23:31;9;9;
64138;PMS5003;50435;43.700;-79.318;2023-02-20T14:25:59;13;11;
64138;PMS5003;50435;43.700;-79.318;2023-02-20T14:28:29;9;9;
64138;PMS5003;50435;43.700;-79.318;2023-02-20T14:31:02;12;10;
64138;PMS5003;50435;43.700;-79.318;2023-02-20T14:33:32;10;10;
64138;PMS5003;50435;43.700;-79.318;2023-02-20T14:36:04;13;12;
64138;PMS5003;50435;43.700;-79.318;2023-02-20T14:38:51;9;8;
64138;PMS5003;50435;43.700;-79.318;2023-02-20T14:41:26;7;7;
64138;PMS5003;50435;43.700;-79.318;2023-02-20T14:43:56;8;8;
64138;PMS5003;50435;43.700;-79.318;2023-02-20T14:46:26;10;10;
64138;PMS5003;50435;43.700;-79.318;2023-02-20T14:49:03;5;5;
64138;PMS5003;50435;43.700;-79.318;2023-02-20T14:51:33;8;6;
64138;PMS5003;50435;43.700;-79.318;2023-02-20T14:54:02;5;5;
64138;PMS5003;50435;43.700;-79.318;2023-02-20T14:56:43;9;7;
64138;PMS5003;50435;43.700;-79.318;2023-02-20T14:59:15;10;8;
64138;PMS5003;50435;43.700;-79.318;2023-02-20T15:01:52;5;5;
64138;PMS5003;50435;43.700;-79.318;2023-02-20T15:04:22;5;5;
64138;PMS5003;50435;43.700;-79.318;2023-02-20T15:06:52;4;4;
64138;PMS5003;50435;43.700;-79.318;2023-02-20T15:09:34;5;5;
64138;PMS5003;50435;43.700;-79.318;2023-02-20T15:12:03;6;6;
64138;PMS5003;50435;43.700;-79.318;2023-02-20T15:14:31;7;7;
64138;PMS5003;50435;43.700;-79.318;2023-02-20T15:17:08;5;5;
64138;PMS5003;50435;43.700;-79.318;2023-02-20T15:19:45;9;9;
64138;PMS5003;50435;43.700;-79.318;2023-02-20T15:22:21;8;7;
64138;PMS5003;50435;43.700;-79.318;2023-02-20T15:24:50;8;8;
64138;PMS5003;50435;43.700;-79.318;2023-02-20T15:27:19;6;6;
64138;PMS5003;50435;43.700;-79.318;2023-02-20T15:30:05;6;6;
64138;PMS5003;50435;43.700;-79.318;2023-02-20T15:32:35;6;6;
64138;PMS5003;50435;43.700;-79.318;2023-02-20T15:35:04;7;7;
64138;PMS5003;50435;43.700;-79.318;2023-02-20T15:37:38;5;5;
64138;PMS5003;50435;43.700;-79.318;2023-02-20T15:40:07;5;5;
64138;PMS5003;50435;43.700;-79.318;2023-02-20T15:42:43;5;5;
64138;PMS5003;50435;43.700;-79.318;2023-02-20T15:45:11;4;4;
64138;PMS5003;50435;43.700;-79.318;2023-02-20T15:47:39;6;6;
64138;PMS5003;50435;43.700;-79.318;2023-02-20T15:50:06;4;4;
64138;PMS5003;50435;43.700;-79.318;2023-02-20T15:52:34;6;6;
64138;PMS5003;50435;43.700;-79.318;2023-02-20T15:55:02;6;6;
64138;PMS5003;50435;43.700;-79.318;2023-02-20T15:57:30;6;5;
64138;PMS5003;50435;43.700;-79.318;2023-02-20T15:59:58;3;3;
64138;PMS5003;50435;43.700;-79.318;2023-02-20T16:02:25;4;4;
64138;PMS5003;50435;43.700;-79.318;2023-02-20T16:04:52;4;4;
64138;PMS5003;50435;43.700;-79.318;2023-02-20T16:07:20;3;3;
64138;PMS5003;50435;43.700;-79.318;2023-02-20T16:09:47;6;5;
64138;PMS5003;50435;43.700;-79.318;2023-02-20T16:12:15;4;4;
64138;PMS5003;50435;43.700;-79.318;2023-02-20T16:14:45;3;3;
64138;PMS5003;50435;43.700;-79.318;2023-02-20T16:17:13;4;4;
64138;PMS5003;50435;43.700;-79.318;2023-02-20T16:19:47;3;3;
64138;PMS5003;50435;43.700;-79.318;2023-02-20T16:22:14;3;3;
64138;PMS5003;50435;43.700;-79.318;2023-02-20T16:24:42;3;3;
64138;PMS5003;50435;43.700;-79.318;2023-02-20T16:27:14;3;3;
64138;PMS5003;50435;43.700;-79.318;2023-02-20T16:29:44;2;2;
64138;PMS5003;50435;43.700;-79.318;2023-02-20T16:32:15;4;4;
64138;PMS5003;50435;43.700;-79.318;2023-02-20T16:34:45;3;3;
64138;PMS5003;50435;43.700;-79.318;2023-02-20T16:37:13;3;3;